Time;durP1;ratioP1;P1;durP2;ratioP2;P2;SDS_P1;SDS_P2;PMS_P1;PMS_P2;Temp;Humidity;BMP_temperature;BMP_pressure;BME280_temperature;BME280_humidity;BME280_pressure;Samples;Min_cycle;Max_cycle;Signal;HPM_P1;HPM_P2
2021/10/24 00:00:25;;;;;;;26.07;10.18;;;;;;;5.75;72.17;98427.84;1659292;85;25783;-85
2021/10/24 00:02:54;;;;;;;27.62;10.98;;;;;;;5.75;72.33;98427.84;1691100;84;25687;-84
2021/10/24 00:05:20;;;;;;;18.82;8.68;;;;;;;5.75;72.41;98426.50;1659532;85;25818;-84
2021/10/24 00:07:47;;;;;;;24.67;9.53;;;;;;;5.75;72.45;98432.70;1692108;84;25728;-85
2021/10/24 00:10:14;;;;;;;21.93;10.35;;;;;;;5.75;72.47;98437.22;1696694;83;27669;-85
2021/10/24 00:12:40;;;;;;;19.23;9.03;;;;;;;5.74;72.60;98440.89;1696701;83;25796;-85
2021/10/24 00:15:08;;;;;;;19.20;10.08;;;;;;;5.72;72.52;98442.88;1696926;83;25859;-85
2021/10/24 00:17:35;;;;;;;25.10;9.83;;;;;;;5.72;72.52;98449.58;1696882;83;25747;-85
2021/10/24 00:20:01;;;;;;;20.10;8.73;;;;;;;5.73;72.53;98453.94;1696746;83;25807;-84
2021/10/24 00:22:28;;;;;;;23.27;10.50;;;;;;;5.74;72.51;98452.95;1696828;83;27601;-85
2021/10/24 00:24:55;;;;;;;28.32;11.80;;;;;;;5.74;72.62;98458.30;1696890;83;25804;-85
2021/10/24 00:27:22;;;;;;;29.67;12.25;;;;;;;5.71;72.65;98463.47;1696929;83;25703;-85
2021/10/24 00:29:48;;;;;;;23.40;11.33;;;;;;;5.72;72.64;98461.63;1696898;83;25907;-85
2021/10/24 00:32:15;;;;;;;19.12;9.43;;;;;;;5.73;72.65;98463.32;1696991;83;25783;-85
2021/10/24 00:34:42;;;;;;;21.93;10.28;;;;;;;5.73;72.72;98468.67;1696909;84;27464;-85
2021/10/24 00:37:09;;;;;;;18.57;8.98;;;;;;;5.71;72.75;98462.13;1696768;83;25286;-85
2021/10/24 00:39:36;;;;;;;24.15;9.28;;;;;;;5.67;72.68;98467.48;1696926;83;25832;-85
2021/10/24 00:42:03;;;;;;;20.95;10.30;;;;;;;5.67;72.68;98466.63;1696940;83;25818;-85
2021/10/24 00:44:33;;;;;;;24.75;10.00;;;;;;;5.69;72.68;98464.61;1696966;83;25787;-85
2021/10/24 00:47:04;;;;;;;22.00;9.78;;;;;;;5.71;72.86;98462.63;1696810;83;27454;-85
2021/10/24 00:49:31;;;;;;;25.43;10.35;;;;;;;5.71;72.86;98468.83;1696807;83;25800;-84
2021/10/24 00:51:57;;;;;;;22.15;9.23;;;;;;;5.73;72.95;98470.02;1696846;83;25958;-85
2021/10/24 00:54:27;;;;;;;19.90;9.00;;;;;;;5.74;73.03;98465.00;1696926;83;25774;-85
2021/10/24 00:56:55;;;;;;;25.35;9.05;;;;;;;5.73;72.92;98468.67;1696882;83;25733;-84
2021/10/24 00:59:23;;;;;;;24.45;8.85;;;;;;;5.74;72.89;98463.16;1696947;83;27633;-85
2021/10/24 01:01:50;;;;;;;23.07;9.50;;;;;;;5.74;72.83;98461.83;1696779;83;26309;-85
2021/10/24 01:04:18;;;;;;;21.70;11.08;;;;;;;5.73;72.92;98463.32;1696862;83;25321;-85
2021/10/24 01:06:46;;;;;;;22.77;10.32;;;;;;;5.70;72.99;98460.45;1696829;83;25915;-85
2021/10/24 01:09:20;;;;;;;22.52;8.95;;;;;;;5.69;72.96;98464.61;1696648;83;25692;-85
2021/10/24 01:11:48;;;;;;;22.95;9.30;;;;;;;5.68;72.98;98466.45;1696938;84;27549;-85
2021/10/24 01:14:15;;;;;;;25.32;8.85;;;;;;;5.70;73.12;98466.30;1696703;83;25759;-84
2021/10/24 01:16:43;;;;;;;20.62;7.30;;;;;;;5.70;73.14;98470.31;1696827;83;25767;-84
2021/10/24 01:19:12;;;;;;;20.88;7.55;;;;;;;5.67;72.94;98467.48;1696953;83;25814;-85
2021/10/24 01:21:39;;;;;;;23.07;7.45;;;;;;;5.70;72.88;98466.30;1696660;83;25699;-85
2021/10/24 01:24:06;;;;;;;16.15;7.83;;;;;;;5.72;73.00;98461.63;1696791;83;27396;-85
2021/10/24 01:26:36;;;;;;;19.65;8.05;;;;;;;5.70;73.04;98466.30;1696764;83;25733;-85
2021/10/24 01:29:05;;;;;;;22.75;8.55;;;;;;;5.71;73.18;98464.81;1696803;84;25338;-85
2021/10/24 01:31:32;;;;;;;19.87;9.53;;;;;;;5.71;73.21;98473.34;1696781;84;25841;-84
2021/10/24 01:33:59;;;;;;;23.27;8.98;;;;;;;5.70;73.21;98475.67;1696926;83;25995;-84
2021/10/24 01:36:25;;;;;;;21.20;8.53;;;;;;;5.71;73.21;98474.68;1696782;83;28437;-83
2021/10/24 01:38:52;;;;;;;21.70;9.55;;;;;;;5.71;73.31;98484.06;1704887;81;26326;-85
2021/10/24 01:41:23;;;;;;;21.93;9.23;;;;;;;5.70;73.34;98482.38;1697813;83;26352;-84
2021/10/24 01:43:50;;;;;;;19.57;8.40;;;;;;;5.74;73.39;98487.77;1698374;83;25760;-85
2021/10/24 01:46:17;;;;;;;18.27;7.90;;;;;;;5.75;73.60;98485.45;1698348;84;25789;-84
2021/10/24 01:48:45;;;;;;;17.65;7.78;;;;;;;5.73;73.44;98486.09;1698415;83;27397;-84
2021/10/24 01:51:12;;;;;;;21.23;8.43;;;;;;;5.75;73.55;98485.45;1698133;83;25832;-84
2021/10/24 01:53:42;;;;;;;16.57;8.20;;;;;;;5.76;73.56;98487.97;1707761;82;25751;-84
2021/10/24 01:56:09;;;;;;;31.95;13.55;;;;;;;5.74;73.67;98489.12;1704118;81;25745;-85
2021/10/24 01:58:37;;;;;;;20.40;8.55;;;;;;;5.69;73.64;98496.77;1703194;82;25733;-84
2021/10/24 02:01:06;;;;;;;16.85;7.50;;;;;;;5.68;73.63;98495.08;1706448;82;28268;-84
2021/10/24 02:03:33;;;;;;;15.85;7.92;;;;;;;5.71;73.75;98498.80;1698255;83;26045;-85
2021/10/24 02:05:59;;;;;;;22.82;7.67;;;;;;;5.69;73.66;98502.12;1698389;83;25751;-84
2021/10/24 02:08:27;;;;;;;17.10;6.95;;;;;;;5.71;73.68;98497.45;1700643;82;26735;-84
2021/10/24 02:10:53;;;;;;;21.05;7.37;;;;;;;5.75;73.76;98500.18;1711704;82;25882;-84
2021/10/24 02:13:20;;;;;;;16.65;7.28;;;;;;;5.74;73.74;98494.48;1698291;83;28118;-84
2021/10/24 02:15:46;;;;;;;18.07;7.05;;;;;;;5.79;73.72;98505.58;1698322;83;25811;-84
2021/10/24 02:18:13;;;;;;;22.35;8.60;;;;;;;5.79;73.81;98507.77;1698443;83;25788;-84
2021/10/24 02:20:41;;;;;;;21.17;7.90;;;;;;;5.83;73.85;98507.44;1698141;83;26318;-85
2021/10/24 02:23:09;;;;;;;17.57;8.00;;;;;;;5.83;73.90;98503.41;1698063;83;25839;-85
2021/10/24 02:25:38;;;;;;;22.58;9.03;;;;;;;5.80;73.86;98500.04;1698254;83;28178;-85
2021/10/24 02:28:05;;;;;;;16.32;8.20;;;;;;;5.82;73.82;98509.27;1698201;83;25747;-85
2021/10/24 02:30:31;;;;;;;18.50;8.88;;;;;;;5.82;73.90;98500.39;1698369;84;25863;-85
2021/10/24 02:32:58;;;;;;;25.95;9.10;;;;;;;5.77;73.98;98496.36;1710383;81;25913;-85
2021/10/24 02:35:25;;;;;;;18.75;8.95;;;;;;;5.79;74.05;98489.51;1703379;82;25801;-86
2021/10/24 02:37:54;;;;;;;19.45;8.85;;;;;;;5.78;74.07;98498.05;1698343;83;27601;-84
2021/10/24 02:40:22;;;;;;;19.70;8.00;;;;;;;5.83;74.12;98502.92;1698155;83;25346;-85
2021/10/24 02:42:51;;;;;;;17.45;8.55;;;;;;;5.86;74.14;98501.77;1698276;84;25846;-85
2021/10/24 02:45:18;;;;;;;19.07;8.03;;;;;;;5.88;74.04;98506.02;1698053;83;26218;-84
2021/10/24 02:47:45;;;;;;;20.02;9.25;;;;;;;5.89;74.01;98502.84;1678785;84;25347;-85
2021/10/24 02:50:12;;;;;;;17.67;8.33;;;;;;;5.85;73.99;98506.29;1698309;83;27358;-85
2021/10/24 02:52:39;;;;;;;17.85;8.63;;;;;;;5.86;74.01;98511.99;1698163;83;25775;-84
2021/10/24 02:55:07;;;;;;;18.12;8.68;;;;;;;5.89;74.04;98509.05;1698257;83;25747;-84
2021/10/24 02:57:34;;;;;;;20.82;8.25;;;;;;;5.89;74.07;98513.06;1698366;83;25916;-84
2021/10/24 03:00:01;;;;;;;16.23;8.13;;;;;;;5.92;74.02;98510.05;1698376;83;25781;-84
2021/10/24 03:02:28;;;;;;;16.67;8.05;;;;;;;5.93;73.99;98506.38;1698271;83;28214;-84
2021/10/24 03:04:54;;;;;;;18.30;8.00;;;;;;;5.94;74.13;98508.06;1698318;84;25712;-83
2021/10/24 03:07:21;;;;;;;19.35;8.10;;;;;;;5.92;74.09;98516.75;1698294;83;25809;-82
2021/10/24 03:09:48;;;;;;;19.20;7.37;;;;;;;5.93;74.11;98516.25;1693465;83;26689;-83
2021/10/24 03:12:14;;;;;;;18.17;7.30;;;;;;;5.93;74.10;98518.44;1692350;84;25721;-83
2021/10/24 03:14:41;;;;;;;17.73;7.95;;;;;;;5.88;74.01;98521.22;1692237;83;28071;-83
2021/10/24 03:17:07;;;;;;;19.42;8.80;;;;;;;5.89;73.99;98526.95;1692048;83;25765;-84
2021/10/24 03:19:34;;;;;;;18.55;8.48;;;;;;;5.90;74.01;98525.47;1692394;83;25725;-83
2021/10/24 03:22:03;;;;;;;18.42;8.55;;;;;;;5.89;73.98;98527.80;1692069;83;26640;-84
2021/10/24 03:24:29;;;;;;;19.00;9.03;;;;;;;5.91;74.06;98535.69;1692286;84;25770;-83
2021/10/24 03:26:56;;;;;;;18.82;9.08;;;;;;;5.92;74.21;98540.02;1692207;83;27377;-84
2021/10/24 03:29:23;;;;;;;17.37;7.75;;;;;;;5.92;74.29;98535.51;1692185;84;25744;-84
2021/10/24 03:31:49;;;;;;;21.42;8.35;;;;;;;5.95;74.19;98536.55;1702894;82;25791;-84
2021/10/24 03:34:16;;;;;;;19.17;7.92;;;;;;;5.96;74.22;98531.53;1694316;83;25843;-85
2021/10/24 03:36:43;;;;;;;15.90;7.80;;;;;;;5.99;74.23;98527.70;1711031;82;25679;-84
2021/10/24 03:39:10;;;;;;;18.85;8.20;;;;;;;5.98;74.24;98534.91;1695229;83;27489;-84
2021/10/24 03:41:36;;;;;;;23.20;8.80;;;;;;;5.97;74.18;98541.27;1692241;83;25812;-83
2021/10/24 03:44:04;;;;;;;19.50;8.53;;;;;;;5.98;74.27;98539.42;1692355;83;25807;-84
2021/10/24 03:46:31;;;;;;;18.57;8.23;;;;;;;5.98;74.28;98529.55;1692181;83;26498;-84
2021/10/24 03:48:59;;;;;;;18.02;8.18;;;;;;;5.98;74.32;98537.59;1696966;83;26477;-84
2021/10/24 03:51:25;;;;;;;18.00;9.70;;;;;;;5.99;74.30;98535.25;1694741;83;27386;-85
2021/10/24 03:53:52;;;;;;;25.50;10.43;;;;;;;6.00;74.36;98534.26;1712669;82;25923;-84
2021/10/24 03:56:18;;;;;;;20.45;10.63;;;;;;;6.01;74.32;98539.13;1700360;81;25786;-84
2021/10/24 03:58:45;;;;;;;24.12;10.45;;;;;;;6.01;74.24;98538.63;1692458;83;25685;-85
2021/10/24 04:01:12;;;;;;;25.15;10.63;;;;;;;6.01;74.24;98531.92;1692521;84;25787;-84
2021/10/24 04:03:38;;;;;;;25.30;10.90;;;;;;;6.02;74.31;98538.97;1692180;83;27436;-84
2021/10/24 04:06:06;;;;;;;23.80;10.75;;;;;;;6.03;74.24;98549.20;1692060;84;25828;-83
2021/10/24 04:08:32;;;;;;;24.55;10.05;;;;;;;6.03;74.23;98542.00;1692404;83;25718;-84
2021/10/24 04:10:59;;;;;;;20.90;9.35;;;;;;;6.03;74.13;98546.02;1689231;84;26704;-84
2021/10/24 04:13:25;;;;;;;20.85;10.13;;;;;;;6.06;74.02;98547.02;1690192;84;26462;-84
2021/10/24 04:15:52;;;;;;;18.25;9.40;;;;;;;6.08;73.95;98538.33;1691686;84;27437;-84
2021/10/24 04:18:18;;;;;;;23.02;10.85;;;;;;;6.09;73.83;98540.52;1704472;83;25840;-83
2021/10/24 04:20:45;;;;;;;22.90;11.38;;;;;;;6.09;73.79;98541.36;1689726;84;25381;-85
2021/10/24 04:23:12;;;;;;;24.75;11.03;;;;;;;6.09;73.77;98537.84;1690127;84;25777;-85
2021/10/24 04:25:38;;;;;;;28.45;10.18;;;;;;;6.07;73.72;98539.33;1690146;84;25723;-84
2021/10/24 04:28:05;;;;;;;20.27;10.45;;;;;;;6.02;73.65;98540.31;1690354;84;27376;-84
2021/10/24 04:30:32;;;;;;;22.58;10.05;;;;;;;6.02;73.66;98548.35;1690228;84;25636;-84
2021/10/24 04:32:59;;;;;;;25.02;10.32;;;;;;;5.99;73.63;98547.31;1690134;84;25621;-84
2021/10/24 04:35:25;;;;;;;20.12;10.00;;;;;;;5.99;73.73;98549.15;1690042;84;26479;-84
2021/10/24 04:37:52;;;;;;;21.37;10.93;;;;;;;6.01;73.72;98549.84;1690141;84;25797;-84
2021/10/24 04:40:19;;;;;;;23.98;12.28;;;;;;;6.01;73.63;98543.98;1690111;84;27499;-84
2021/10/24 04:42:45;;;;;;;30.50;12.03;;;;;;;6.00;73.67;98549.00;1690007;84;25740;-84
2021/10/24 04:45:12;;;;;;;25.97;10.75;;;;;;;6.01;73.72;98553.86;1690134;84;25791;-84
2021/10/24 04:47:39;;;;;;;22.77;10.45;;;;;;;5.99;73.76;98547.31;1691016;83;26554;-84
2021/10/24 04:50:08;;;;;;;21.65;11.12;;;;;;;6.00;73.74;98562.40;1695883;83;25338;-85
2021/10/24 04:52:37;;;;;;;22.48;11.88;;;;;;;6.00;73.67;98569.59;1694117;83;27493;-85
2021/10/24 04:55:05;;;;;;;23.95;11.90;;;;;;;6.01;73.50;98573.47;1689488;83;25318;-85
2021/10/24 04:57:32;;;;;;;19.77;11.57;;;;;;;6.02;73.48;98580.52;1689545;83;25817;-85
2021/10/24 04:59:58;;;;;;;21.02;12.55;;;;;;;6.01;73.50;98588.21;1689560;84;25933;-84
2021/10/24 05:02:25;;;;;;;20.68;10.45;;;;;;;5.99;73.50;98583.50;1689813;83;25748;-84
2021/10/24 05:04:52;;;;;;;20.80;10.58;;;;;;;5.99;73.39;98583.50;1689716;83;29182;-84
2021/10/24 05:07:19;;;;;;;17.62;9.65;;;;;;;6.00;73.39;98585.68;1689527;84;25660;-84
2021/10/24 05:09:45;;;;;;;18.25;9.45;;;;;;;5.98;73.43;98589.85;1686803;83;25710;-85
2021/10/24 05:12:12;;;;;;;21.40;9.68;;;;;;;5.97;73.42;98588.66;1677783;84;26369;-85
2021/10/24 05:14:39;;;;;;;17.12;9.70;;;;;;;5.95;73.46;98585.28;1677719;84;25714;-85
2021/10/24 05:17:05;;;;;;;17.17;9.58;;;;;;;5.91;73.51;98584.77;1677784;85;27618;-85
2021/10/24 05:19:32;;;;;;;16.23;8.75;;;;;;;5.92;73.42;98592.28;1677653;84;25892;-85
2021/10/24 05:21:58;;;;;;;15.90;7.90;;;;;;;5.91;73.33;98592.81;1677846;84;25931;-85
2021/10/24 05:24:25;;;;;;;19.48;8.28;;;;;;;5.92;73.24;98596.30;1677803;84;25767;-85
2021/10/24 05:26:52;;;;;;;16.42;9.03;;;;;;;5.92;73.33;98595.80;1677628;84;25778;-85
2021/10/24 05:29:18;;;;;;;17.25;8.20;;;;;;;5.93;73.45;98597.50;1677734;84;28289;-85
2021/10/24 05:31:45;;;;;;;15.78;9.58;;;;;;;5.94;73.41;98603.20;1677439;84;26012;-84
2021/10/24 05:34:12;;;;;;;20.65;8.80;;;;;;;5.90;73.50;98604.52;1677850;84;25718;-85
2021/10/24 05:36:38;;;;;;;16.57;8.53;;;;;;;5.85;73.46;98609.45;1677832;85;25850;-84
2021/10/24 05:39:05;;;;;;;17.30;8.88;;;;;;;5.83;73.52;98607.42;1677766;84;25797;-84
2021/10/24 05:41:32;;;;;;;14.20;8.40;;;;;;;5.80;73.53;98611.73;1677763;85;27483;-84
2021/10/24 05:43:59;;;;;;;15.83;8.98;;;;;;;5.78;73.60;98611.07;1677619;84;25812;-85
2021/10/24 05:46:25;;;;;;;20.32;8.28;;;;;;;5.76;73.54;98617.07;1677708;85;25800;-85
2021/10/24 05:48:52;;;;;;;20.62;8.73;;;;;;;5.73;73.41;98610.67;1683524;85;25782;-84
2021/10/24 05:51:18;;;;;;;16.93;8.80;;;;;;;5.74;73.31;98625.75;1685942;84;25831;-84
2021/10/24 05:53:45;;;;;;;19.70;8.40;;;;;;;5.71;73.31;98628.23;1685899;84;26989;-84
2021/10/24 05:56:13;;;;;;;16.62;8.88;;;;;;;5.68;73.26;98631.70;1685834;84;25721;-84
2021/10/24 05:58:39;;;;;;;17.07;8.28;;;;;;;5.65;73.30;98632.02;1685933;85;25752;-84
2021/10/24 06:01:06;;;;;;;15.25;8.63;;;;;;;5.61;73.31;98632.81;1685901;84;26488;-84
2021/10/24 06:03:32;;;;;;;20.02;9.33;;;;;;;5.58;73.36;98635.78;1686047;84;25823;-84
2021/10/24 06:05:59;;;;;;;14.43;9.00;;;;;;;5.56;73.41;98646.30;1685873;84;27421;-84
2021/10/24 06:08:27;;;;;;;18.10;8.93;;;;;;;5.56;73.51;98654.33;1685887;84;25788;-84
2021/10/24 06:11:03;;;;;;;16.00;8.25;;;;;;;5.58;73.61;98645.66;1686746;84;25758;-84
2021/10/24 06:13:26;;;;;;;18.73;10.23;;;;;;;5.61;73.59;98650.22;1686694;84;26546;-84
2021/10/24 06:15:53;;;;;;;17.32;8.78;;;;;;;5.65;73.54;98645.42;1687921;84;25824;-84
2021/10/24 06:18:20;;;;;;;13.48;8.90;;;;;;;5.64;73.68;98647.25;1687955;84;28357;-84
2021/10/24 06:20:47;;;;;;;17.27;8.33;;;;;;;5.61;73.66;98654.23;1687782;84;26411;-85
2021/10/24 06:23:14;;;;;;;12.68;7.70;;;;;;;5.57;73.72;98664.05;1687810;84;25287;-84
2021/10/24 06:25:40;;;;;;;14.87;8.78;;;;;;;5.61;73.75;98665.45;1687538;84;26387;-84
2021/10/24 06:28:10;;;;;;;18.80;10.43;;;;;;;5.64;73.82;98665.16;1681215;84;25744;-84
2021/10/24 06:30:36;;;;;;;15.88;9.28;;;;;;;5.64;73.85;98671.36;1679768;84;27626;-84
2021/10/24 06:33:03;;;;;;;17.37;8.58;;;;;;;5.67;73.85;98671.07;1679692;84;25682;-84
2021/10/24 06:35:30;;;;;;;13.25;7.35;;;;;;;5.70;73.89;98672.58;1679616;84;25833;-84
2021/10/24 06:37:57;;;;;;;15.83;8.75;;;;;;;5.75;73.75;98671.65;1679680;84;25899;-84
2021/10/24 06:40:23;;;;;;;17.50;8.95;;;;;;;5.77;73.59;98672.34;1679687;84;25759;-84
2021/10/24 06:42:50;;;;;;;15.75;9.05;;;;;;;5.78;73.39;98672.70;1679706;84;28112;-84
2021/10/24 06:45:16;;;;;;;14.98;8.15;;;;;;;5.79;73.37;98675.72;1679624;84;25898;-84
2021/10/24 06:47:43;;;;;;;18.07;8.48;;;;;;;5.78;73.35;98677.56;1681669;84;25898;-84
2021/10/24 06:50:11;;;;;;;11.55;7.37;;;;;;;5.83;73.28;98687.80;1687899;84;25824;-84
2021/10/24 06:52:39;;;;;;;18.48;10.40;;;;;;;5.86;72.93;98686.17;1687824;84;25812;-84
2021/10/24 06:55:07;;;;;;;28.92;18.60;;;;;;;5.85;73.10;98691.19;1684788;84;27603;-84
2021/10/24 06:57:53;;;;;;;19.42;12.30;;;;;;;5.88;73.05;98699.42;1679531;84;25797;-85
2021/10/24 07:00:23;;;;;;;22.37;11.73;;;;;;;5.94;72.95;98694.33;1679455;84;25757;-84
2021/10/24 07:02:50;;;;;;;19.02;7.65;;;;;;;5.99;72.84;98694.73;1679750;84;25858;-84
2021/10/24 07:05:19;;;;;;;17.75;8.85;;;;;;;6.04;72.72;98697.78;1679850;84;25722;-84
2021/10/24 07:07:46;;;;;;;18.70;9.98;;;;;;;6.11;72.73;98700.22;1679649;84;27368;-84
2021/10/24 07:10:14;;;;;;;23.60;11.97;;;;;;;6.20;72.67;98704.31;1679323;83;25689;-84
2021/10/24 07:12:41;;;;;;;22.45;9.70;;;;;;;6.28;72.71;98695.03;1678001;84;25907;-84
2021/10/24 07:15:10;;;;;;;17.23;8.90;;;;;;;6.36;72.38;98696.44;1677865;84;25854;-84
2021/10/24 07:17:37;;;;;;;19.25;9.75;;;;;;;6.40;72.38;98692.47;1677827;84;25801;-84
2021/10/24 07:20:06;;;;;;;13.98;7.97;;;;;;;6.44;72.40;98691.14;1677947;84;28266;-84
2021/10/24 07:22:33;;;;;;;16.40;8.78;;;;;;;6.50;72.16;98691.88;1677914;85;25885;-84
2021/10/24 07:25:01;;;;;;;18.75;10.32;;;;;;;6.56;72.18;98696.61;1677877;84;26336;-84
2021/10/24 07:27:28;;;;;;;14.15;7.78;;;;;;;6.63;72.03;98696.84;1677601;85;26605;-84
2021/10/24 07:29:54;;;;;;;15.40;6.85;;;;;;;6.72;71.80;98705.30;1677835;84;25654;-84
2021/10/24 07:32:22;;;;;;;19.60;9.28;;;;;;;6.88;71.45;98693.86;1677776;85;27551;-83
2021/10/24 07:34:49;;;;;;;19.52;8.90;;;;;;;7.01;71.40;98703.66;1677885;84;25738;-84
2021/10/24 07:37:16;;;;;;;20.25;9.70;;;;;;;7.14;71.19;98693.34;1677923;84;26367;-83
2021/10/24 07:39:44;;;;;;;14.68;8.35;;;;;;;7.31;70.97;98697.82;1677864;84;25801;-84
2021/10/24 07:42:10;;;;;;;17.35;7.90;;;;;;;7.46;70.82;98697.57;1677810;85;25670;-84
2021/10/24 07:44:38;;;;;;;15.00;6.97;;;;;;;7.62;70.59;98697.28;1677774;84;27378;-84
2021/10/24 07:47:06;;;;;;;15.95;6.90;;;;;;;7.79;70.39;98697.20;1677776;85;25739;-84
2021/10/24 07:49:32;;;;;;;20.35;6.45;;;;;;;7.94;70.25;98694.24;1684928;84;25768;-84
2021/10/24 07:51:59;;;;;;;10.43;5.62;;;;;;;8.10;69.83;98697.95;1677928;84;25689;-83
2021/10/24 07:54:27;;;;;;;13.70;4.60;;;;;;;8.28;69.63;98691.45;1677806;84;25860;-84
2021/10/24 07:56:54;;;;;;;10.00;4.85;;;;;;;8.44;69.24;98697.91;1677774;83;27393;-83
2021/10/24 07:59:20;;;;;;;19.77;4.78;;;;;;;8.63;69.11;98694.88;1677695;84;25794;-84
2021/10/24 08:01:47;;;;;;;15.55;4.50;;;;;;;8.85;68.78;98692.86;1677897;84;25759;-84
2021/10/24 08:04:13;;;;;;;11.55;4.75;;;;;;;9.08;68.30;98689.47;1677813;84;26654;-84
2021/10/24 08:06:40;;;;;;;14.30;4.67;;;;;;;9.25;67.88;98688.44;1677981;85;26478;-83
2021/10/24 08:09:11;;;;;;;16.48;5.20;;;;;;;9.36;67.61;98679.98;1678023;84;27551;-84
2021/10/24 08:11:39;;;;;;;11.35;4.37;;;;;;;9.51;67.19;98678.26;1682919;84;25701;-83
2021/10/24 08:14:07;;;;;;;9.68;4.62;;;;;;;9.70;66.92;98677.84;1687306;84;25724;-83
2021/10/24 08:16:36;;;;;;;10.20;3.90;;;;;;;9.91;66.03;98684.48;1687168;83;25939;-84
2021/10/24 08:19:03;;;;;;;13.50;4.45;;;;;;;10.05;65.45;98681.04;1686863;84;25899;-83
2021/10/24 08:21:32;;;;;;;11.95;4.33;;;;;;;10.06;65.11;98677.33;1687211;83;27652;-83
2021/10/24 08:23:59;;;;;;;12.68;5.12;;;;;;;10.21;65.04;98680.14;1687287;83;25712;-83
2021/10/24 08:26:27;;;;;;;12.75;4.20;;;;;;;10.39;65.13;98686.08;1686859;83;26154;-84
2021/10/24 08:28:54;;;;;;;10.48;3.62;;;;;;;10.45;64.47;98690.27;1687189;83;25869;-84
2021/10/24 08:31:25;;;;;;;13.75;4.10;;;;;;;10.39;64.01;98690.97;1687140;83;25800;-84
2021/10/24 08:33:48;;;;;;;11.12;3.98;;;;;;;10.37;63.80;98687.64;1686642;83;27621;-84
2021/10/24 08:36:15;;;;;;;15.65;4.15;;;;;;;10.31;63.83;98691.55;1687042;84;25723;-85
2021/10/24 08:38:43;;;;;;;9.93;4.05;;;;;;;10.27;63.41;98691.56;1687321;83;25775;-85
2021/10/24 08:41:12;;;;;;;10.63;4.45;;;;;;;10.20;63.39;98693.30;1691389;84;26467;-85
2021/10/24 08:43:40;;;;;;;10.05;4.72;;;;;;;10.19;63.42;98692.97;1696598;83;25665;-84
2021/10/24 08:46:07;;;;;;;11.45;5.17;;;;;;;10.10;63.13;98690.80;1687487;83;27608;-84
2021/10/24 08:48:34;;;;;;;13.18;4.67;;;;;;;10.01;63.15;98694.06;1687381;83;25692;-84
2021/10/24 08:51:03;;;;;;;16.00;4.65;;;;;;;10.02;63.11;98690.86;1667093;85;25838;-84
2021/10/24 08:53:30;;;;;;;10.32;4.05;;;;;;;10.14;62.87;98693.48;1687032;83;25744;-85
2021/10/24 08:55:57;;;;;;;11.78;4.75;;;;;;;10.26;63.08;98696.66;1687271;83;25736;-84
2021/10/24 08:58:24;;;;;;;26.97;9.05;;;;;;;10.46;62.70;98708.16;1687210;83;27447;-84
2021/10/24 09:00:53;;;;;;;14.45;4.67;;;;;;;10.65;62.44;98703.28;1687058;83;25276;-85
2021/10/24 09:03:19;;;;;;;16.02;4.22;;;;;;;10.90;62.46;98708.82;1687097;83;25299;-85
2021/10/24 09:05:52;;;;;;;9.15;4.72;;;;;;;10.97;61.56;98718.41;1687106;83;25841;-84
2021/10/24 09:08:23;;;;;;;11.90;3.83;;;;;;;10.89;61.06;98719.30;1687258;83;25775;-84
2021/10/24 09:10:59;;;;;;;13.35;3.60;;;;;;;10.83;60.45;98718.69;1687034;83;27486;-84
2021/10/24 09:13:31;;;;;;;11.85;3.80;;;;;;;10.69;60.43;98722.16;1686973;83;25938;-84
2021/10/24 09:16:07;;;;;;;11.83;4.35;;;;;;;10.64;60.44;98719.15;1687145;83;25696;-84
2021/10/24 09:18:38;;;;;;;12.25;4.25;;;;;;;10.65;60.06;98722.19;1686542;83;25751;-85
2021/10/24 09:21:21;;;;;;;13.85;3.87;;;;;;;10.63;59.57;98721.01;1687214;83;25769;-84
2021/10/24 09:23:52;;;;;;;12.18;3.58;;;;;;;10.52;59.38;98723.28;1687055;83;28165;-83
2021/10/24 09:26:23;;;;;;;13.08;4.33;;;;;;;10.44;59.40;98720.98;1686908;83;25728;-83
2021/10/24 09:29:09;;;;;;;11.33;5.12;;;;;;;10.52;59.35;98728.17;1686788;83;25808;-83
2021/10/24 09:31:42;;;;;;;10.75;3.45;;;;;;;10.69;59.89;98719.46;1681996;83;25774;-83
2021/10/24 09:34:21;;;;;;;8.40;3.15;;;;;;;10.97;59.77;98734.11;1672442;83;25733;-83
2021/10/24 09:37:00;;;;;;;8.10;2.50;;;;;;;11.02;58.10;98734.38;1686843;83;28323;-83
2021/10/24 09:39:30;;;;;;;9.15;3.40;;;;;;;11.15;58.02;98733.26;1686979;84;25263;-84
2021/10/24 09:42:22;;;;;;;9.83;3.30;;;;;;;11.39;58.51;98734.05;1687230;83;25776;-81
2021/10/24 09:45:13;;;;;;;12.13;4.00;;;;;;;11.55;58.36;98737.44;1687190;83;25767;-85
2021/10/24 09:47:46;;;;;;;9.50;3.42;;;;;;;11.72;57.51;98732.66;1692580;83;25731;-84
2021/10/24 09:50:39;;;;;;;12.63;3.52;;;;;;;11.82;57.15;98725.17;1693184;83;28246;-84
2021/10/24 09:53:14;;;;;;;;;;;;;;;11.71;56.77;98726.12;1695640;83;25831;-83
2021/10/24 09:55:46;;;;;;;9.83;3.27;;;;;;;11.81;56.79;98717.23;1693205;83;26469;-83
2021/10/24 09:58:14;;;;;;;9.58;3.10;;;;;;;11.98;56.98;98717.86;1693128;83;25833;-84
2021/10/24 10:00:43;;;;;;;10.65;3.58;;;;;;;12.16;56.44;98723.72;1693110;83;25791;-85
2021/10/24 10:03:10;;;;;;;8.65;3.75;;;;;;;12.29;56.27;98718.47;1693063;83;29082;-84
2021/10/24 10:05:40;;;;;;;9.63;2.72;;;;;;;12.51;56.19;98721.53;1693046;83;26489;-83
2021/10/24 10:08:17;;;;;;;9.13;3.37;;;;;;;12.58;55.26;98717.02;1693123;83;25679;-84
2021/10/24 10:10:51;;;;;;;11.50;3.67;;;;;;;12.74;55.34;98715.94;1693114;83;25701;-84
2021/10/24 10:13:24;;;;;;;7.55;2.67;;;;;;;12.94;54.96;98712.05;1699409;82;25725;-84
2021/10/24 10:15:53;;;;;;;10.23;4.92;;;;;;;13.08;54.39;98716.55;1697540;82;27443;-83
2021/10/24 10:18:21;;;;;;;7.67;2.80;;;;;;;13.20;54.12;98703.34;1697668;82;25744;-85
2021/10/24 10:20:51;;;;;;;5.80;2.42;;;;;;;13.30;54.06;98711.45;1697812;82;26265;-84
2021/10/24 10:23:32;;;;;;;7.92;2.10;;;;;;;13.36;53.35;98700.86;1697735;82;25744;-84
2021/10/24 10:25:58;;;;;;;6.65;2.50;;;;;;;13.44;52.72;98700.70;1681151;82;25768;-84
2021/10/24 10:28:46;;;;;;;9.80;2.62;;;;;;;13.54;52.14;98705.25;1697559;82;27647;-83
2021/10/24 10:31:15;;;;;;;6.65;2.60;;;;;;;13.43;51.38;98707.16;1687761;82;25684;-84
2021/10/24 10:33:56;;;;;;;9.40;2.62;;;;;;;13.51;51.98;98702.95;1697654;82;25811;-83
2021/10/24 10:36:26;;;;;;;11.57;4.03;;;;;;;13.60;51.46;98697.17;1697786;82;25771;-83
2021/10/24 10:38:53;;;;;;;5.70;1.90;;;;;;;13.80;51.23;98699.98;1691178;82;25801;-82
2021/10/24 10:41:23;;;;;;;10.80;2.62;;;;;;;14.01;51.12;98699.88;1697836;82;27397;-83
2021/10/24 10:44:06;;;;;;;7.17;2.20;;;;;;;14.23;50.44;98692.47;1670484;82;25830;-84
2021/10/24 10:46:33;;;;;;;7.53;2.35;;;;;;;14.43;49.93;98695.27;1697796;82;25779;-84
2021/10/24 10:49:25;;;;;;;7.20;2.15;;;;;;;14.68;49.48;98690.11;1705989;82;26442;-84
2021/10/24 10:51:54;;;;;;;4.77;2.10;;;;;;;14.75;48.77;98687.70;1650460;85;25875;-85
2021/10/24 10:54:21;;;;;;;8.35;2.98;;;;;;;14.93;47.99;98682.20;1646737;85;28171;-86
2021/10/24 10:56:54;;;;;;;4.03;2.00;;;;;;;15.04;48.29;98676.97;1650155;85;25897;-85
2021/10/24 10:59:36;;;;;;;4.80;2.42;;;;;;;15.19;47.59;98682.20;1650413;85;25360;-85
2021/10/24 11:02:18;;;;;;;;;;;;;;;15.39;47.47;98680.30;1652917;85;26449;-86
2021/10/24 11:04:53;;;;;;;5.83;1.75;;;;;;;15.50;45.84;98678.29;1645696;85;25795;-85
2021/10/24 11:07:41;;;;;;;6.55;2.42;;;;;;;15.60;46.04;98681.13;1650262;85;27638;-84
2021/10/24 11:10:18;;;;;;;8.58;2.40;;;;;;;15.69;46.27;98678.51;1644159;85;25866;-84
2021/10/24 11:12:47;;;;;;;12.35;2.72;;;;;;;15.74;46.00;98682.77;1639725;85;25413;-85
2021/10/24 11:15:27;;;;;;;6.45;2.22;;;;;;;15.86;45.46;98681.06;1634252;86;26524;-85
2021/10/24 11:17:54;;;;;;;6.45;2.37;;;;;;;15.89;45.21;98677.92;1634288;86;26633;-85
2021/10/24 11:20:29;;;;;;;7.65;2.87;;;;;;;15.79;45.25;98672.93;1634223;86;27490;-85
2021/10/24 11:23:01;;;;;;;6.97;2.30;;;;;;;15.64;44.62;98674.22;1657820;83;26186;-86
2021/10/24 11:25:38;;;;;;;4.90;2.20;;;;;;;15.49;44.52;98677.97;1693319;83;25815;-86
2021/10/24 11:28:10;;;;;;;8.23;2.50;;;;;;;15.43;44.95;98680.72;1685510;83;25794;-85
2021/10/24 11:30:38;;;;;;;5.03;2.00;;;;;;;15.54;44.62;98671.07;1685846;83;25739;-85
2021/10/24 11:33:06;;;;;;;6.45;2.60;;;;;;;15.74;44.40;98660.99;1685903;83;27510;-88
2021/10/24 11:35:36;;;;;;;6.65;2.00;;;;;;;15.92;44.38;98665.25;1685320;83;25848;-86
2021/10/24 11:38:10;;;;;;;6.55;2.17;;;;;;;16.04;43.49;98671.69;1677463;83;25791;-86